createdAt,value
2022-09-12T00:01:23.377Z,101953.19
2022-09-12T00:03:58.112Z,101947.25
2022-09-12T00:06:30.314Z,101953.19
2022-09-12T00:09:00.098Z,101945.91
2022-09-12T00:11:27.082Z,101945.72
2022-09-12T00:14:01.645Z,101943.53
2022-09-12T00:16:30.001Z,101937.75
2022-09-12T00:18:56.797Z,101937.56
2022-09-12T00:21:23.916Z,101930.72
2022-09-12T00:23:51.469Z,101929.91
2022-09-12T00:26:18.929Z,101927.41
2022-09-12T00:28:45.761Z,101918.50
2022-09-12T00:31:15.799Z,101924.63
2022-09-12T00:33:42.946Z,101923.34
2022-09-12T00:36:15.288Z,101909.81
2022-09-12T00:38:42.603Z,101919.75
2022-09-12T00:41:25.125Z,101908.88
2022-09-12T00:43:58.476Z,101911.97
2022-09-12T00:46:39.133Z,101910.34
2022-09-12T00:49:16.186Z,101906.97
2022-09-12T00:51:48.178Z,101902.75
2022-09-12T00:54:19.613Z,101910.78
2022-09-12T00:56:48.509Z,101897.81
2022-09-12T00:59:19.507Z,101904.94
2022-09-12T01:01:49.655Z,101901.28
2022-09-12T01:04:19.974Z,101905.25
2022-09-12T01:06:47.175Z,101900.59
2022-09-12T01:09:17.918Z,101900.22
2022-09-12T01:11:47.067Z,101899.03
2022-09-12T01:14:17.563Z,101896.41
2022-09-12T01:16:45.731Z,101900.69
2022-09-12T01:19:18.741Z,101898.84
2022-09-12T01:22:05.455Z,101901.50
2022-09-12T01:24:59.049Z,101892.94
2022-09-12T01:27:34.868Z,101894.72
2022-09-12T01:30:24.382Z,101890.44
2022-09-12T01:33:17.972Z,101894.28
2022-09-12T01:36:02.972Z,101891.63
2022-09-12T01:38:48.339Z,101876.13
2022-09-12T01:41:37.841Z,101879.50
2022-09-12T01:44:08.904Z,101883.97
2022-09-12T01:47:05.448Z,101880.03
2022-09-12T01:49:59.719Z,101874.66
2022-09-12T01:52:34.827Z,101869.44
2022-09-12T01:55:12.773Z,101873.13
2022-09-12T01:58:05.119Z,101867.63
2022-09-12T02:00:42.566Z,101864.22
2022-09-12T02:03:14.960Z,101860.28
2022-09-12T02:05:47.625Z,101853.91
2022-09-12T02:08:28.553Z,101858.06
2022-09-12T02:11:04.080Z,101852.56
2022-09-12T02:13:37.583Z,101851.41
2022-09-12T02:16:10.731Z,101845.19
2022-09-12T02:18:43.419Z,101845.72
2022-09-12T02:21:10.391Z,101841.44
2022-09-12T02:23:48.104Z,101841.25
2022-09-12T02:26:30.973Z,101842.41
2022-09-12T02:28:57.675Z,101845.25
2022-09-12T02:31:42.765Z,101843.63
2022-09-12T02:34:27.868Z,101840.78
2022-09-12T02:37:27.201Z,101840.44
2022-09-12T02:39:56.803Z,101840.72
2022-09-12T02:42:24.334Z,101834.63
2022-09-12T02:44:52.693Z,101838.41
2022-09-12T02:47:31.454Z,101828.22
2022-09-12T02:49:59.418Z,101820.66
2022-09-12T02:52:28.064Z,101817.69
2022-09-12T02:54:57.293Z,101820.75
2022-09-12T02:57:23.849Z,101818.28
2022-09-12T02:59:55.586Z,101817.28
2022-09-12T03:02:40.611Z,101811.19
2022-09-12T03:05:09.968Z,101815.47
2022-09-12T03:07:42.536Z,101815.13
2022-09-12T03:10:17.907Z,101812.78
2022-09-12T03:13:24.830Z,101811.78
2022-09-12T03:16:12.332Z,101806.31
2022-09-12T03:18:47.810Z,101804.31
2022-09-12T03:21:30.269Z,101794.56
2022-09-12T03:24:15.959Z,101805.59
2022-09-12T03:26:53.053Z,101799.97
2022-09-12T03:29:20.339Z,101806.53
2022-09-12T03:31:52.898Z,101809.00
2022-09-12T03:34:20.913Z,101799.22
2022-09-12T03:36:47.771Z,101800.91
2022-09-12T03:39:14.626Z,101801.88
2022-09-12T03:41:41.071Z,101798.41
2022-09-12T03:44:07.744Z,101796.59
2022-09-12T03:46:34.251Z,101794.97
2022-09-12T03:49:00.807Z,101791.50
2022-09-12T03:51:27.401Z,101796.13
2022-09-12T03:53:54.191Z,101791.03
2022-09-12T03:56:20.822Z,101792.38
2022-09-12T03:58:47.356Z,101791.38
2022-09-12T04:01:18.928Z,101786.28
2022-09-12T04:03:48.049Z,101781.53
2022-09-12T04:06:17.391Z,101780.22
2022-09-12T04:08:44.617Z,101777.56
2022-09-12T04:11:14.765Z,101770.84
2022-09-12T04:13:43.197Z,101772.00
2022-09-12T04:16:11.120Z,101780.28
2022-09-12T04:18:38.244Z,101779.81
2022-09-12T04:21:10.425Z,101781.19
2022-09-12T04:23:36.832Z,101783.47
2022-09-12T04:26:06.520Z,101781.31
2022-09-12T04:28:34.523Z,101779.31
2022-09-12T04:31:07.546Z,101782.13
2022-09-12T04:33:35.217Z,101779.94
2022-09-12T04:36:06.954Z,101781.22
2022-09-12T04:38:34.981Z,101781.06
2022-09-12T04:41:01.739Z,101780.88
2022-09-12T04:43:28.233Z,101782.03
2022-09-12T04:45:54.703Z,101777.56
2022-09-12T04:48:21.168Z,101769.66
2022-09-12T04:50:47.580Z,101772.13
2022-09-12T04:53:14.012Z,101770.97
2022-09-12T04:55:40.435Z,101781.53
2022-09-12T04:58:06.849Z,101778.34
2022-09-12T05:00:33.250Z,101774.53
2022-09-12T05:03:00.237Z,101773.53
2022-09-12T05:05:26.767Z,101774.00
2022-09-12T05:07:53.192Z,101774.28
2022-09-12T05:10:19.555Z,101778.38
2022-09-12T05:12:46.050Z,101771.28
2022-09-12T05:15:12.470Z,101767.81
2022-09-12T05:17:38.830Z,101772.09
2022-09-12T05:20:05.603Z,101764.00
2022-09-12T05:22:33.060Z,101767.97
2022-09-12T05:24:59.451Z,101767.25
2022-09-12T05:27:25.845Z,101770.25
2022-09-12T05:29:52.274Z,101769.28
2022-09-12T05:32:18.680Z,101769.91
2022-09-12T05:34:45.316Z,101771.19
2022-09-12T05:37:12.616Z,101767.53
2022-09-12T05:39:39.099Z,101769.56
2022-09-12T05:42:06.091Z,101765.53
2022-09-12T05:44:33.342Z,101759.91
2022-09-12T05:46:59.782Z,101763.63
2022-09-12T05:49:26.223Z,101761.63
2022-09-12T05:51:52.703Z,101770.03
2022-09-12T05:54:20.623Z,101763.56
2022-09-12T05:56:47.381Z,101758.09
2022-09-12T05:59:21.492Z,101765.19
2022-09-12T06:01:48.981Z,101763.19
2022-09-12T06:04:15.837Z,101771.97
2022-09-12T06:06:47.249Z,101768.31
2022-09-12T06:09:15.854Z,101765.81
2022-09-12T06:11:42.945Z,101766.69
2022-09-12T06:14:11.451Z,101762.00
2022-09-12T06:16:38.962Z,101765.94
2022-09-12T06:19:08.048Z,101760.63
2022-09-12T06:21:35.372Z,101775.16
2022-09-12T06:24:02.430Z,101772.16
2022-09-12T06:26:29.844Z,101776.28
2022-09-12T06:28:58.044Z,101768.16
2022-09-12T06:31:33.972Z,101766.59
2022-09-12T06:34:02.875Z,101763.75
2022-09-12T06:36:32.673Z,101776.63
2022-09-12T06:39:23.874Z,101777.09
2022-09-12T06:41:52.048Z,101774.91
2022-09-12T06:44:19.474Z,101770.06
2022-09-12T06:46:46.208Z,101772.34
2022-09-12T06:49:16.104Z,101772.72
2022-09-12T06:51:42.608Z,101755.00
2022-09-12T06:54:12.072Z,101764.41
2022-09-12T06:56:38.877Z,101756.72
2022-09-12T06:59:05.264Z,101754.16
2022-09-12T07:01:31.997Z,101748.28
2022-09-12T07:04:03.244Z,101747.81
2022-09-12T07:06:35.355Z,101744.66
2022-09-12T07:09:04.632Z,101751.50
2022-09-12T07:11:33.757Z,101750.34
2022-09-12T07:14:02.162Z,101755.34
2022-09-12T07:16:30.327Z,101755.06
2022-09-12T07:19:02.602Z,101742.09
2022-09-12T07:21:30.060Z,101748.91
2022-09-12T07:24:00.201Z,101751.63
2022-09-12T07:26:28.925Z,101751.88
2022-09-12T07:29:12.773Z,101748.47
2022-09-12T07:31:44.749Z,101754.03
2022-09-12T07:34:11.611Z,101749.88
2022-09-12T07:36:39.135Z,101752.78
2022-09-12T07:39:05.912Z,101746.28
2022-09-12T07:41:35.654Z,101740.59
2022-09-12T07:44:03.195Z,101745.75
2022-09-12T07:46:31.363Z,101745.19
2022-09-12T07:48:59.688Z,101745.38
2022-09-12T07:51:29.720Z,101748.47
2022-09-12T07:53:56.627Z,101748.13
2022-09-12T07:56:28.775Z,101755.28
2022-09-12T07:58:56.857Z,101757.97
2022-09-12T08:01:23.547Z,101750.00
2022-09-12T08:03:54.450Z,101752.72
2022-09-12T08:06:24.129Z,101753.53
2022-09-12T08:08:52.151Z,101750.09
2022-09-12T08:11:20.258Z,101747.66
2022-09-12T08:13:49.571Z,101755.03
2022-09-12T08:16:21.435Z,101753.22
2022-09-12T08:18:49.186Z,101748.53
2022-09-12T08:21:18.579Z,101746.69
2022-09-12T08:23:45.154Z,101753.88
2022-09-12T08:26:13.219Z,101760.22
2022-09-12T08:28:43.338Z,101760.84
2022-09-12T08:31:15.155Z,101752.44
2022-09-12T08:33:41.670Z,101756.13
2022-09-12T08:36:11.313Z,101751.44
2022-09-12T08:38:39.647Z,101750.63
2022-09-12T08:41:18.098Z,101746.47
2022-09-12T08:44:07.102Z,101753.00
2022-09-12T08:47:07.357Z,101753.22
2022-09-12T08:49:43.304Z,101753.63
2022-09-12T08:52:17.221Z,101756.47
2022-09-12T08:54:47.632Z,101755.81
2022-09-12T08:57:15.257Z,101753.38
2022-09-12T08:59:44.950Z,101752.91
2022-09-12T09:02:46.920Z,101750.22
2022-09-12T09:05:41.099Z,101741.16
2022-09-12T09:08:22.950Z,101739.69
2022-09-12T09:11:11.102Z,101733.09
2022-09-12T09:14:17.419Z,101735.28
2022-09-12T09:16:46.296Z,101729.28
2022-09-12T09:19:24.649Z,101726.13
2022-09-12T09:22:06.589Z,101729.34
2022-09-12T09:24:48.918Z,101720.88
2022-09-12T09:27:41.000Z,101716.31
2022-09-12T09:30:17.453Z,101722.84
2022-09-12T09:32:49.082Z,101719.28
2022-09-12T09:35:43.526Z,101716.78
2022-09-12T09:38:41.874Z,101715.06
2022-09-12T09:41:30.812Z,101714.59
2022-09-12T09:43:58.543Z,101716.78
2022-09-12T09:46:25.426Z,101716.50
2022-09-12T09:48:53.951Z,101716.81
2022-09-12T09:51:32.909Z,101719.63
2022-09-12T09:54:13.566Z,101715.25
2022-09-12T09:56:42.471Z,101711.38
2022-09-12T09:59:10.121Z,101700.25
2022-09-12T10:01:37.628Z,101710.47
2022-09-12T10:04:04.447Z,101703.19
2022-09-12T10:06:34.380Z,101697.97
2022-09-12T10:09:28.498Z,101693.38
2022-09-12T10:11:56.365Z,101702.66
2022-09-12T10:14:36.739Z,101692.38
2022-09-12T10:17:23.454Z,101686.69
2022-09-12T10:20:10.511Z,101681.81
2022-09-12T10:22:38.598Z,101683.47
2022-09-12T10:25:12.337Z,101681.72
2022-09-12T10:27:38.788Z,101677.44
2022-09-12T10:30:18.484Z,101678.59
2022-09-12T10:32:50.604Z,101666.19
2022-09-12T10:35:24.501Z,101667.44
2022-09-12T10:37:57.025Z,101671.06
2022-09-12T10:40:29.617Z,101663.75
2022-09-12T10:42:58.651Z,101664.66
2022-09-12T10:45:37.574Z,101658.84
2022-09-12T10:48:32.530Z,101658.59
2022-09-12T10:51:00.838Z,101656.16
2022-09-12T10:53:34.325Z,101651.22
2022-09-12T10:56:07.175Z,101644.31
2022-09-12T10:58:42.837Z,101640.44
2022-09-12T11:01:25.939Z,101649.38
2022-09-12T11:04:01.763Z,101643.91
2022-09-12T11:06:39.940Z,101643.78
2022-09-12T11:09:17.569Z,101641.94
2022-09-12T11:12:14.547Z,101647.56
2022-09-12T11:15:10.983Z,101648.00
2022-09-12T11:17:46.951Z,101641.22
2022-09-12T11:20:31.625Z,101639.13
2022-09-12T11:23:10.502Z,101634.16
2022-09-12T11:25:44.086Z,101639.75
2022-09-12T11:28:45.355Z,101628.56
2022-09-12T11:31:32.392Z,101629.09
2022-09-12T11:34:02.827Z,101626.16
2022-09-12T11:36:55.476Z,101628.81
2022-09-12T11:39:33.036Z,101635.13
2022-09-12T11:42:05.851Z,101630.88
2022-09-12T11:44:40.427Z,101630.88
2022-09-12T11:47:14.594Z,101633.25
2022-09-12T11:49:52.306Z,101625.81
2022-09-12T11:52:38.326Z,101620.06
2022-09-12T11:55:08.793Z,101621.00
2022-09-12T11:57:47.773Z,101622.13
2022-09-12T12:00:25.499Z,101625.91
2022-09-12T12:03:47.065Z,101611.13
2022-09-12T12:06:30.395Z,101620.16
2022-09-12T12:09:04.397Z,101618.63
2022-09-12T12:11:42.305Z,101610.41
2022-09-12T12:14:25.101Z,101609.91
2022-09-12T12:16:57.451Z,101608.31
2022-09-12T12:19:35.334Z,101604.31
2022-09-12T12:22:29.519Z,101597.59
2022-09-12T12:25:19.599Z,101600.59
2022-09-12T12:28:07.489Z,101604.75
2022-09-12T12:30:59.088Z,101600.59
2022-09-12T12:33:30.504Z,101600.34
2022-09-12T12:36:10.504Z,101595.28
2022-09-12T12:38:43.125Z,101594.53
2022-09-12T12:41:20.346Z,101591.31
2022-09-12T12:43:52.300Z,101587.66
2022-09-12T12:46:33.379Z,101577.13
2022-09-12T12:49:27.250Z,101585.22
2022-09-12T12:52:00.363Z,101574.75
2022-09-12T12:54:43.731Z,101567.78
2022-09-12T12:57:46.349Z,101563.50
2022-09-12T13:00:33.407Z,101552.72
2022-09-12T13:03:34.449Z,101561.66
2022-09-12T13:06:37.811Z,101550.91
2022-09-12T13:12:57.950Z,101550.69
2022-09-12T13:15:37.158Z,101549.34
2022-09-12T13:18:12.382Z,101540.75
2022-09-12T13:20:56.780Z,101522.72
2022-09-12T13:23:30.574Z,101528.13
2022-09-12T13:26:01.766Z,101529.06
2022-09-12T13:28:31.096Z,101528.81
2022-09-12T13:31:02.911Z,101520.75
2022-09-12T13:33:35.535Z,101520.47
2022-09-12T13:36:19.137Z,101522.06
2022-09-12T13:38:46.655Z,101526.41
2022-09-12T14:07:01.613Z,101499.47
2022-09-12T14:09:38.506Z,101501.38
2022-09-12T14:12:25.115Z,101506.00
2022-09-12T14:14:52.920Z,101492.78
2022-09-12T14:17:29.764Z,101501.13
2022-09-12T14:19:59.336Z,101486.31
2022-09-12T14:22:29.298Z,101494.69
2022-09-12T14:24:58.709Z,101498.44
2022-09-12T14:27:31.817Z,101492.78
2022-09-12T14:30:20.873Z,101487.91
2022-09-12T14:33:12.201Z,101466.09
2022-09-12T14:35:43.604Z,101470.09
2022-09-12T14:38:13.136Z,101465.81
2022-09-12T14:40:46.011Z,101459.59
2022-09-12T14:43:28.262Z,101458.81
2022-09-12T14:45:59.720Z,101446.13
2022-09-12T14:48:30.776Z,101447.50
2022-09-12T14:50:58.451Z,101447.50
2022-09-12T14:53:30.548Z,101456.38
2022-09-12T14:56:06.802Z,101446.72
2022-09-12T14:58:34.034Z,101445.59
2022-09-12T15:01:06.971Z,101441.56
2022-09-12T15:03:49.412Z,101441.81
2022-09-12T15:06:32.002Z,101438.81
2022-09-12T15:09:02.580Z,101443.41
2022-09-12T15:11:29.219Z,101445.53
2022-09-12T15:13:55.676Z,101445.28
2022-09-12T15:16:22.185Z,101437.69
2022-09-12T15:18:48.702Z,101443.59
2022-09-12T15:21:20.266Z,101441.97
2022-09-12T15:23:51.832Z,101438.19
2022-09-12T15:26:22.012Z,101431.72
2022-09-12T15:28:48.850Z,101429.81
2022-09-12T15:31:30.195Z,101430.88
2022-09-12T15:33:59.277Z,101426.81
2022-09-12T15:36:26.781Z,101426.81
2022-09-12T15:38:53.648Z,101420.91
2022-09-12T15:41:38.074Z,101418.72
2022-09-12T15:44:05.536Z,101416.56
2022-09-12T15:46:32.151Z,101420.56
2022-09-12T15:48:58.635Z,101411.94
2022-09-12T15:51:25.475Z,101415.19
2022-09-12T15:53:52.686Z,101408.47
2022-09-12T15:56:21.177Z,101406.59
2022-09-12T15:58:58.343Z,101400.19
2022-09-12T16:01:26.318Z,101395.59
2022-09-12T16:03:52.817Z,101395.88
2022-09-12T16:06:19.273Z,101398.56
2022-09-12T16:08:45.907Z,101391.28
2022-09-12T16:11:20.830Z,101389.66
2022-09-12T16:13:47.330Z,101388.56
2022-09-12T16:16:13.842Z,101391.50
2022-09-12T16:18:40.814Z,101386.66
2022-09-12T16:21:10.102Z,101382.31
2022-09-12T16:23:43.147Z,101378.78
2022-09-12T16:26:09.587Z,101382.56
2022-09-12T16:28:36.358Z,101373.09
2022-09-12T16:31:05.855Z,101381.91
2022-09-12T16:33:32.696Z,101371.69
2022-09-12T16:36:04.938Z,101371.66
2022-09-12T16:38:32.563Z,101365.44
2022-09-12T16:41:04.118Z,101374.03
2022-09-12T16:43:31.788Z,101367.28
2022-09-12T16:46:05.460Z,101373.44
2022-09-12T16:48:32.394Z,101369.91
2022-09-12T16:51:01.428Z,101377.38
2022-09-12T16:53:32.143Z,101372.00
2022-09-12T16:55:58.848Z,101357.75
2022-09-12T16:58:25.588Z,101359.84
2022-09-12T17:01:03.810Z,101361.91
2022-09-12T17:03:30.594Z,101350.19
2022-09-12T17:06:01.656Z,101336.16
2022-09-12T17:08:28.986Z,101330.94
2022-09-12T17:11:10.550Z,101323.91
2022-09-12T17:14:00.500Z,101334.00
2022-09-12T17:16:24.893Z,101337.66
2022-09-12T17:18:52.527Z,101328.09
2022-09-12T17:21:19.551Z,101324.78
2022-09-12T17:23:46.343Z,101329.63
2022-09-12T17:26:13.707Z,101321.22
2022-09-12T17:28:40.511Z,101318.72
2022-09-12T17:31:09.589Z,101316.47
2022-09-12T17:33:37.104Z,101309.44
2022-09-12T17:36:15.039Z,101313.50
2022-09-12T17:38:43.060Z,101323.47
2022-09-12T17:41:23.822Z,101326.97
2022-09-12T17:43:55.815Z,101331.25
2022-09-12T17:46:24.651Z,101331.53
2022-09-12T17:48:53.489Z,101334.69
2022-09-12T17:51:20.903Z,101328.75
2022-09-12T17:53:47.533Z,101337.56
2022-09-12T17:56:15.600Z,101335.63
2022-09-12T17:58:42.149Z,101330.94
2022-09-12T18:01:32.847Z,101328.88
2022-09-12T18:04:00.780Z,101316.81
2022-09-12T18:06:29.218Z,101326.94
2022-09-12T18:08:55.843Z,101314.28
2022-09-12T18:11:22.326Z,101308.50
2022-09-12T18:13:48.947Z,101323.41
2022-09-12T18:16:15.679Z,101320.94
2022-09-12T18:18:42.283Z,101324.38
2022-09-12T18:21:11.468Z,101333.41
2022-09-12T18:23:38.271Z,101326.91
2022-09-12T18:26:09.898Z,101337.28
2022-09-12T18:28:38.933Z,101343.38
2022-09-12T18:31:11.921Z,101340.38
2022-09-12T18:33:38.433Z,101337.84
2022-09-12T18:36:06.139Z,101344.53
2022-09-12T18:38:32.659Z,101337.78
2022-09-12T18:41:07.300Z,101336.41
2022-09-12T18:43:34.700Z,101336.59
2022-09-12T18:46:10.354Z,101341.03
2022-09-12T18:48:37.697Z,101332.91
2022-09-12T18:51:12.264Z,101329.34
2022-09-12T18:53:39.128Z,101321.34
2022-09-12T18:56:08.620Z,101331.06
2022-09-12T18:58:40.534Z,101326.81
2022-09-12T19:01:11.632Z,101330.44
2022-09-12T19:03:38.272Z,101328.81
2022-09-12T19:06:17.544Z,101326.72
2022-09-12T19:08:45.059Z,101309.19
2022-09-12T19:11:11.946Z,101307.84
2022-09-12T19:13:40.925Z,101303.22
2022-09-12T19:16:10.243Z,101315.19
2022-09-12T19:18:38.556Z,101306.16
2022-09-12T19:21:06.449Z,101299.91
2022-09-12T19:23:35.691Z,101295.72
2022-09-12T19:26:05.757Z,101292.44
2022-09-12T19:28:33.168Z,101287.22
2022-09-12T19:30:59.847Z,101285.28
2022-09-12T19:33:26.350Z,101289.34
2022-09-12T19:35:52.778Z,101283.28
2022-09-12T19:38:19.577Z,101283.88
2022-09-12T19:40:56.832Z,101292.22
2022-09-12T19:43:24.206Z,101290.47
2022-09-12T19:45:51.913Z,101280.94
2022-09-12T19:48:19.488Z,101289.78
2022-09-12T19:50:45.962Z,101294.44
2022-09-12T19:53:12.694Z,101298.72
2022-09-12T19:55:39.188Z,101300.91
2022-09-12T19:58:06.158Z,101299.63
2022-09-12T20:00:34.290Z,101304.75
2022-09-12T20:03:01.645Z,101297.78
2022-09-12T20:05:28.448Z,101296.72
2022-09-12T20:07:54.913Z,101296.72
2022-09-12T20:10:21.393Z,101289.16
2022-09-12T20:12:47.824Z,101288.84
2022-09-12T20:15:14.347Z,101288.50
2022-09-12T20:17:40.899Z,101274.22
2022-09-12T20:20:09.414Z,101277.03
2022-09-12T20:22:39.866Z,101274.63
2022-09-12T20:25:07.188Z,101278.22
2022-09-12T20:27:33.918Z,101281.81
2022-09-12T20:30:00.419Z,101269.03
2022-09-12T20:32:28.932Z,101264.97
2022-09-12T20:34:56.395Z,101264.53
2022-09-12T20:37:23.296Z,101278.69
2022-09-12T20:39:50.988Z,101273.13
2022-09-12T20:42:17.794Z,101277.53
2022-09-12T20:44:44.236Z,101276.03
2022-09-12T20:47:10.684Z,101273.81
2022-09-12T20:49:37.149Z,101265.72
2022-09-12T20:52:04.529Z,101274.41
2022-09-12T20:54:31.113Z,101283.81
2022-09-12T20:56:57.497Z,101281.47
2022-09-12T20:59:23.935Z,101274.97
2022-09-12T21:01:50.468Z,101280.69
2022-09-12T21:04:18.317Z,101279.41
2022-09-12T21:06:44.770Z,101276.63
2022-09-12T21:09:11.318Z,101283.69
2022-09-12T21:11:37.852Z,101276.84
2022-09-12T21:14:04.315Z,101275.00
2022-09-12T21:16:30.896Z,101265.25
2022-09-12T21:18:59.543Z,101262.78
2022-09-12T21:21:26.451Z,101245.28
2022-09-12T21:23:55.214Z,101253.97
2022-09-12T21:26:21.734Z,101256.31
2022-09-12T21:28:48.549Z,101251.22
2022-09-12T21:31:15.070Z,101252.38
2022-09-12T21:33:41.663Z,101255.25
2022-09-12T21:36:08.715Z,101273.03
2022-09-12T21:38:35.385Z,101272.09
2022-09-12T21:41:13.186Z,101268.94
2022-09-12T21:43:40.680Z,101268.50
2022-09-12T21:46:07.660Z,101267.47
2022-09-12T21:48:34.379Z,101276.84
2022-09-12T21:51:01.235Z,101271.50
2022-09-12T21:53:28.067Z,101263.50
2022-09-12T21:55:54.998Z,101267.22
2022-09-12T21:58:21.458Z,101258.63
2022-09-12T22:00:47.929Z,101262.00
2022-09-12T22:03:15.364Z,101269.31
2022-09-12T22:05:41.810Z,101266.97
2022-09-12T22:08:08.594Z,101264.09
2022-09-12T22:10:36.093Z,101262.00
2022-09-12T22:13:02.924Z,101269.78
2022-09-12T22:15:40.525Z,101267.13
2022-09-12T22:18:07.668Z,101265.81
2022-09-12T22:20:34.141Z,101270.94
2022-09-12T22:23:23.831Z,101267.22
2022-09-12T22:25:54.295Z,101270.13
2022-09-12T22:28:21.247Z,101273.81
2022-09-12T22:30:48.551Z,101265.81
2022-09-12T22:33:15.458Z,101263.16
2022-09-12T22:35:42.458Z,101255.94
2022-09-12T22:38:09.211Z,101253.28
2022-09-12T22:40:35.833Z,101249.81
2022-09-12T22:43:02.405Z,101247.59
2022-09-12T22:45:28.914Z,101236.09
2022-09-12T22:47:59.149Z,101239.81
2022-09-12T22:50:27.592Z,101242.75
2022-09-12T22:52:54.157Z,101243.22
2022-09-12T22:55:20.637Z,101239.94
2022-09-12T22:57:47.182Z,101236.72
2022-09-12T23:00:14.816Z,101229.16
2022-09-12T23:02:41.412Z,101224.38
2022-09-12T23:05:08.186Z,101221.69
2022-09-12T23:07:34.642Z,101216.94
2022-09-12T23:10:01.229Z,101212.53
2022-09-12T23:12:27.687Z,101212.03
2022-09-12T23:14:54.187Z,101204.16
2022-09-12T23:17:20.622Z,101209.16
2022-09-12T23:19:47.013Z,101210.75
2022-09-12T23:22:13.520Z,101210.06
2022-09-12T23:24:39.962Z,101215.31
2022-09-12T23:27:06.432Z,101207.41
2022-09-12T23:29:35.305Z,101212.53
2022-09-12T23:32:03.528Z,101206.75
2022-09-12T23:34:30.003Z,101207.91
2022-09-12T23:36:56.735Z,101211.13
2022-09-12T23:39:23.417Z,101201.97
2022-09-12T23:41:50.286Z,101200.81
2022-09-12T23:44:16.765Z,101196.75
2022-09-12T23:46:43.182Z,101197.44
2022-09-12T23:49:09.630Z,101198.13
2022-09-12T23:51:36.123Z,101189.34
2022-09-12T23:54:02.628Z,101194.66
2022-09-12T23:56:29.145Z,101180.84
2022-09-12T23:58:55.602Z,101177.97
